Redan, GA (30074)

06:23 PM EST on martie 01, 2015 (GMT -0500)
Havenridge | Change Station
CLOSE
Current Station
Staţie meteo personală
Location: Conyers, GA
Elevation: 879 ft
Nearby Weather Stations

Elev 879 ft 33.67 °N, 84.08 °W | Updated 2 minutes ago

Cer acoperit
Cer acoperit
45.3 °F
Feels Like 45 °F
N
0.0
Vânt variabil Vânt from ENE

astăzi
High -- | Low -- °F
--% Chance of Precip.
Ieri
High -- | Low -- °F
Precip. -- inch
7:05 AM 6:32 PM
Lună în creştere, 88% visible
Presiunea 30.42 inch
Vizibilitatea 5.0 mile
Nori Cer acoperit 800 ft
Vânt rece 45 °F
Punctul de rouă 40 °F
Umiditatea 83%
Precipitaţii 0.34 inch
Adâncimea zăpezii Not available.
UV 0 out of 12
Pollen 8.00 out of 12
Calitatea aerului Not available.
Flu Activity Not available.
METAR KPDK 012253Z 00000KT 5SM BR OVC008 08/06 A3039 RMK AO2 SLP301 T00780056

More Conditions Fewer Conditions

Presiunea 30.42 inch
Vizibilitatea 5.0 mile
Nori Cer acoperit 800 ft
Vânt rece 45 °F
Punctul de rouă 40 °F
Umiditatea 83%
Precipitaţii 0.34 inch
Adâncimea zăpezii Not available.
UV 0 out of 12
Pollen 8.00 out of 12
Calitatea aerului Not available.
Flu Activity Not available.
METAR KPDK 012253Z 00000KT 5SM BR OVC008 08/06 A3039 RMK AO2 SLP301 T00780056

More Conditions Fewer Conditions

10-Day Weather Forecast

Almanac

Astronomie

Mar. 01, 2015 Răsărit Apus
Timpul Actual
Crepusculul Civil
Crepusculul nautic
Răsărit Astronomic
Luna
Durata zilei lumină
Lungimea zilei
Tomorrow will be .
, % of the Moon is Illuminated

Extremele de azi

State Highs State Lows

Community

WunderPhotos

Upload Photos

1,801,605 photos uploaded!

WunderBlogs® & News

Nearby

Calitatea aerului

  Calitatea aerului Index de calitate a aerului Poluat
Not available.

Adâncimea zapezii

Station Depth Elevation

Earthquake Activity

Oraş Distance Mag. Time & Date
Minimum magnitude displayed is 2.5.

Coastal Water Temperatures

Locul Temperatura

Nearby Weather Stations